createdAt,value
2023-04-16T00:01:25.481Z,100949.47
2023-04-16T00:03:52.194Z,100960.47
2023-04-16T00:06:18.897Z,100957.03
2023-04-16T00:08:45.413Z,100961.50
2023-04-16T00:11:11.885Z,100960.50
2023-04-16T00:13:38.407Z,100962.00
2023-04-16T00:16:05.252Z,100957.31
2023-04-16T00:18:31.990Z,100968.56
2023-04-16T00:20:59.465Z,100964.13
2023-04-16T00:23:26.008Z,100959.88
2023-04-16T00:25:53.665Z,100964.31
2023-04-16T00:28:20.268Z,100963.84
2023-04-16T00:30:46.807Z,100963.41
2023-04-16T00:33:13.223Z,100961.19
2023-04-16T00:35:39.829Z,100959.84
2023-04-16T00:38:06.299Z,100959.28
2023-04-16T00:40:32.745Z,100959.88
2023-04-16T00:42:59.200Z,100956.06
2023-04-16T00:45:25.744Z,100958.09
2023-04-16T00:47:52.239Z,100957.31
2023-04-16T00:50:18.952Z,100957.47
2023-04-16T00:52:47.624Z,100949.47
2023-04-16T00:55:18.848Z,100957.59
2023-04-16T00:57:45.839Z,100966.84
2023-04-16T01:00:13.175Z,100958.13
2023-04-16T01:02:39.788Z,100964.00
2023-04-16T01:05:06.629Z,100974.78
2023-04-16T01:07:33.090Z,100968.44
2023-04-16T01:09:59.584Z,100970.50
2023-04-16T01:12:26.240Z,100966.44
2023-04-16T01:14:52.867Z,100980.22
2023-04-16T01:17:19.259Z,100987.31
2023-04-16T01:19:45.734Z,100986.22
2023-04-16T01:22:12.191Z,100988.13
2023-04-16T01:24:38.673Z,100993.22
2023-04-16T01:27:05.056Z,100991.91
2023-04-16T01:29:31.566Z,100996.41
2023-04-16T01:31:57.943Z,100987.72
2023-04-16T01:34:24.670Z,100989.47
2023-04-16T01:36:52.472Z,100990.66
2023-04-16T01:39:19.438Z,100997.31
2023-04-16T01:41:46.403Z,100999.56
2023-04-16T01:44:12.827Z,101000.06
2023-04-16T01:46:39.615Z,100996.41
2023-04-16T01:49:07.344Z,101005.66
2023-04-16T01:51:34.109Z,101010.81
2023-04-16T01:54:01.040Z,101006.66
2023-04-16T01:56:27.480Z,101007.09
2023-04-16T01:58:53.973Z,101006.78
2023-04-16T02:01:20.545Z,101014.97
2023-04-16T02:03:47.824Z,101014.50
2023-04-16T02:06:14.945Z,101018.72
2023-04-16T02:08:41.724Z,101018.41
2023-04-16T02:11:08.213Z,101028.69
2023-04-16T02:13:34.817Z,101019.03
2023-04-16T02:16:02.378Z,101024.66
2023-04-16T02:18:28.836Z,101029.47
2023-04-16T02:20:59.375Z,101035.53
2023-04-16T02:23:25.836Z,101034.78
2023-04-16T02:25:52.391Z,101030.13
2023-04-16T02:28:18.830Z,101023.41
2023-04-16T02:30:45.502Z,101033.66
2023-04-16T02:33:13.004Z,101029.31
2023-04-16T02:35:40.580Z,101019.06
2023-04-16T02:38:07.764Z,101022.38
2023-04-16T02:40:34.348Z,101026.41
2023-04-16T02:43:01.068Z,101027.47
2023-04-16T02:45:27.719Z,101020.00
2023-04-16T02:47:54.293Z,101030.06
2023-04-16T02:50:21.018Z,101031.16
2023-04-16T02:52:47.514Z,101034.13
2023-04-16T02:55:13.913Z,101028.13
2023-04-16T02:57:42.218Z,101032.94
2023-04-16T03:00:09.079Z,101032.25
2023-04-16T03:02:35.582Z,101035.28
2023-04-16T03:05:03.092Z,101030.88
2023-04-16T03:07:29.580Z,101029.28
2023-04-16T03:09:55.982Z,101040.06
2023-04-16T03:12:22.428Z,101032.25
2023-04-16T03:14:51.039Z,101037.31
2023-04-16T03:17:17.603Z,101035.97
2023-04-16T03:19:44.086Z,101036.91
2023-04-16T03:22:10.489Z,101041.47
2023-04-16T03:24:38.130Z,101046.81
2023-04-16T03:27:04.592Z,101038.03
2023-04-16T03:29:30.972Z,101037.50
2023-04-16T03:31:57.617Z,101043.84
2023-04-16T03:34:24.052Z,101038.50
2023-04-16T03:36:50.481Z,101041.84
2023-04-16T03:39:17.012Z,101047.31
2023-04-16T03:41:43.436Z,101050.81
2023-04-16T03:44:09.821Z,101047.06
2023-04-16T03:46:36.445Z,101046.34
2023-04-16T03:49:02.973Z,101046.59
2023-04-16T03:51:29.368Z,101052.31
2023-04-16T03:53:55.969Z,101066.41
2023-04-16T03:56:22.408Z,101063.34
2023-04-16T03:58:48.799Z,101057.78
2023-04-16T04:01:15.265Z,101058.53
2023-04-16T04:03:41.972Z,101054.81
2023-04-16T04:06:09.330Z,101064.69
2023-04-16T04:08:35.787Z,101066.75
2023-04-16T04:11:02.276Z,101068.63
2023-04-16T04:13:28.703Z,101061.22
2023-04-16T04:15:55.244Z,101076.25
2023-04-16T04:18:21.768Z,101077.34
2023-04-16T04:20:48.194Z,101079.38
2023-04-16T04:23:14.603Z,101080.94
2023-04-16T04:25:41.049Z,101080.75
2023-04-16T04:28:07.468Z,101081.63
2023-04-16T04:30:35.609Z,101084.03
2023-04-16T04:33:02.180Z,101087.72
2023-04-16T04:35:28.671Z,101082.94
2023-04-16T04:37:55.126Z,101081.94
2023-04-16T04:40:21.563Z,101081.38
2023-04-16T04:42:47.970Z,101077.00
2023-04-16T04:45:14.436Z,101082.66
2023-04-16T04:47:41.102Z,101081.03
2023-04-16T04:50:08.073Z,101080.34
2023-04-16T04:52:34.461Z,101080.25
2023-04-16T04:55:01.297Z,101079.72
2023-04-16T04:57:27.703Z,101080.16
2023-04-16T04:59:54.121Z,101084.19
2023-04-16T05:02:20.712Z,101088.56
2023-04-16T05:04:47.273Z,101087.94
2023-04-16T05:07:13.783Z,101095.50
2023-04-16T05:09:40.504Z,101094.81
2023-04-16T05:12:07.081Z,101108.09
2023-04-16T05:14:33.580Z,101104.59
2023-04-16T05:17:00.079Z,101107.66
2023-04-16T05:19:26.591Z,101107.00
2023-04-16T05:21:53.062Z,101117.38
2023-04-16T05:24:20.258Z,101117.59
2023-04-16T05:26:46.633Z,101110.44
2023-04-16T05:29:13.118Z,101121.53
2023-04-16T05:31:39.595Z,101116.97
2023-04-16T05:34:06.008Z,101126.44
2023-04-16T05:36:32.499Z,101123.84
2023-04-16T05:38:58.965Z,101122.59
2023-04-16T05:41:25.463Z,101128.72
2023-04-16T05:43:51.990Z,101127.91
2023-04-16T05:46:18.483Z,101132.00
2023-04-16T05:48:45.906Z,101131.31
2023-04-16T05:51:12.311Z,101140.00
2023-04-16T05:53:38.775Z,101140.34
2023-04-16T05:56:05.747Z,101144.09
2023-04-16T05:58:32.189Z,101136.59
2023-04-16T06:00:58.768Z,101147.00
2023-04-16T06:03:25.350Z,101141.41
2023-04-16T06:05:51.842Z,101146.34
2023-04-16T06:08:18.301Z,101151.44
2023-04-16T06:10:47.792Z,101144.88
2023-04-16T06:13:14.384Z,101148.41
2023-04-16T06:15:40.889Z,101144.63
2023-04-16T06:18:07.349Z,101151.78
2023-04-16T06:20:33.833Z,101152.72
2023-04-16T06:23:00.351Z,101159.22
2023-04-16T06:25:26.765Z,101157.22
2023-04-16T06:27:53.159Z,101158.09
2023-04-16T06:30:19.998Z,101163.97
2023-04-16T06:32:46.636Z,101170.78
2023-04-16T06:35:13.224Z,101167.84
2023-04-16T06:37:39.687Z,101162.91
2023-04-16T06:40:06.592Z,101169.06
2023-04-16T06:42:33.036Z,101174.25
2023-04-16T06:44:59.440Z,101179.03
2023-04-16T06:47:27.002Z,101185.03
2023-04-16T06:49:53.442Z,101181.44
2023-04-16T06:52:19.895Z,101189.22
2023-04-16T06:54:46.323Z,101188.22
2023-04-16T06:57:12.749Z,101186.38
2023-04-16T06:59:39.508Z,101187.84
2023-04-16T07:02:06.599Z,101199.19
2023-04-16T07:04:33.090Z,101194.19
2023-04-16T07:06:59.623Z,101185.84
2023-04-16T07:09:27.163Z,101198.72
2023-04-16T07:11:54.216Z,101197.59
2023-04-16T07:14:20.771Z,101198.38
2023-04-16T07:16:47.191Z,101203.22
2023-04-16T07:19:13.684Z,101195.94
2023-04-16T07:21:41.987Z,101207.19
2023-04-16T07:24:08.466Z,101211.09
2023-04-16T07:26:34.858Z,101206.09
2023-04-16T07:29:01.310Z,101210.22
2023-04-16T07:31:27.772Z,101209.84
2023-04-16T07:33:54.218Z,101208.09
2023-04-16T07:36:20.942Z,101214.28
2023-04-16T07:38:47.371Z,101216.00
2023-04-16T07:41:13.845Z,101218.75
2023-04-16T07:43:40.309Z,101225.34
2023-04-16T07:46:06.737Z,101231.91
2023-04-16T07:48:33.228Z,101234.84
2023-04-16T07:50:59.831Z,101235.16
2023-04-16T07:53:26.260Z,101232.94
2023-04-16T07:55:52.722Z,101236.13
2023-04-16T07:58:19.148Z,101238.44
2023-04-16T08:00:45.646Z,101240.72
2023-04-16T08:03:12.231Z,101245.44
2023-04-16T08:05:38.971Z,101252.16
2023-04-16T08:08:05.501Z,101244.13
2023-04-16T08:10:32.755Z,101256.41
2023-04-16T08:13:01.355Z,101253.75
2023-04-16T08:15:27.906Z,101255.22
2023-04-16T08:17:54.365Z,101258.00
2023-04-16T08:20:20.837Z,101267.97
2023-04-16T08:22:48.712Z,101261.81
2023-04-16T08:25:15.530Z,101268.56
2023-04-16T08:27:41.957Z,101272.66
2023-04-16T08:30:08.520Z,101273.75
2023-04-16T08:32:35.320Z,101280.09
2023-04-16T08:35:01.968Z,101282.94
2023-04-16T08:37:28.346Z,101281.97
2023-04-16T08:39:54.791Z,101287.22
2023-04-16T08:42:32.033Z,101290.00
2023-04-16T08:45:27.818Z,101298.31
2023-04-16T08:47:54.361Z,101295.22
2023-04-16T08:50:25.940Z,101295.28
2023-04-16T08:52:53.645Z,101293.69
2023-04-16T08:55:24.849Z,101295.81
2023-04-16T08:57:57.630Z,101303.91
2023-04-16T09:00:24.190Z,101301.19
2023-04-16T09:02:51.568Z,101311.81
2023-04-16T09:05:20.698Z,101300.16
2023-04-16T09:07:48.386Z,101307.16
2023-04-16T09:10:16.044Z,101301.00
2023-04-16T09:12:42.932Z,101313.63
2023-04-16T09:15:14.223Z,101308.38
2023-04-16T09:17:40.845Z,101321.81
2023-04-16T09:20:08.994Z,101320.47
2023-04-16T09:22:36.144Z,101325.06
2023-04-16T09:25:02.661Z,101325.69
2023-04-16T09:27:30.790Z,101334.41
2023-04-16T09:29:57.408Z,101339.03
2023-04-16T09:32:28.450Z,101337.66
2023-04-16T09:35:00.126Z,101339.59
2023-04-16T09:37:29.842Z,101338.56
2023-04-16T09:40:01.274Z,101343.72
2023-04-16T09:42:36.154Z,101349.31
2023-04-16T09:45:05.528Z,101348.31
2023-04-16T09:47:41.112Z,101351.84
2023-04-16T09:50:10.591Z,101339.13
2023-04-16T09:52:39.009Z,101354.81
2023-04-16T09:55:06.044Z,101350.91
2023-04-16T09:57:32.501Z,101352.31
2023-04-16T10:00:04.920Z,101353.13
2023-04-16T10:02:33.032Z,101364.16
2023-04-16T10:05:01.796Z,101362.72
2023-04-16T10:07:30.174Z,101367.56
2023-04-16T10:10:03.954Z,101366.28
2023-04-16T10:12:32.628Z,101373.72
2023-04-16T10:14:59.137Z,101362.16
2023-04-16T10:17:26.487Z,101361.03
2023-04-16T10:19:54.659Z,101369.59
2023-04-16T10:22:21.295Z,101371.06
2023-04-16T10:24:49.853Z,101375.16
2023-04-16T10:27:17.097Z,101383.38
2023-04-16T10:29:44.560Z,101381.13
2023-04-16T10:32:12.047Z,101386.59
2023-04-16T10:34:39.086Z,101389.97
2023-04-16T10:37:05.546Z,101390.56
2023-04-16T10:39:37.328Z,101388.53
2023-04-16T10:42:13.388Z,101393.78
2023-04-16T10:44:43.629Z,101386.47
2023-04-16T10:47:12.761Z,101382.22
2023-04-16T10:49:40.158Z,101385.91
2023-04-16T10:52:12.583Z,101386.09
2023-04-16T10:54:40.426Z,101380.88
2023-04-16T10:57:09.128Z,101390.25
2023-04-16T10:59:37.671Z,101384.09
2023-04-16T11:02:11.924Z,101393.13
2023-04-16T11:04:40.339Z,101392.50
2023-04-16T11:07:18.592Z,101412.25
2023-04-16T11:10:02.351Z,101402.94
2023-04-16T11:12:37.522Z,101403.41
2023-04-16T11:15:05.998Z,101402.13
2023-04-16T11:17:37.132Z,101407.56
2023-04-16T11:20:19.462Z,101394.81
2023-04-16T11:22:47.785Z,101397.00
2023-04-16T11:25:19.917Z,101414.31
2023-04-16T11:27:46.366Z,101417.19
2023-04-16T11:30:13.602Z,101415.69
2023-04-16T11:32:40.695Z,101413.00
2023-04-16T11:35:25.192Z,101422.59
2023-04-16T11:37:56.644Z,101421.50
2023-04-16T11:40:23.266Z,101430.03
2023-04-16T11:42:49.736Z,101438.59
2023-04-16T11:45:16.352Z,101429.06
2023-04-16T11:47:51.968Z,101435.28
2023-04-16T11:50:21.956Z,101445.97
2023-04-16T11:52:49.281Z,101443.16
2023-04-16T11:55:15.955Z,101450.75
2023-04-16T11:57:42.486Z,101459.72
2023-04-16T12:00:13.755Z,101470.53
2023-04-16T12:02:41.850Z,101473.19
2023-04-16T12:05:38.785Z,101449.47
2023-04-16T12:08:09.451Z,101470.00
2023-04-16T12:10:52.368Z,101465.38
2023-04-16T12:13:19.629Z,101475.03
2023-04-16T12:15:50.183Z,101450.94
2023-04-16T12:18:17.769Z,101467.81
2023-04-16T12:20:45.850Z,101472.63
2023-04-16T12:23:33.095Z,101463.72
2023-04-16T12:26:10.451Z,101475.03
2023-04-16T12:28:39.324Z,101471.94
2023-04-16T12:31:06.887Z,101469.31
2023-04-16T12:33:33.363Z,101473.22
2023-04-16T12:36:01.607Z,101473.44
2023-04-16T12:38:28.667Z,101466.81
2023-04-16T12:40:57.160Z,101475.59
2023-04-16T12:43:24.473Z,101469.28
2023-04-16T12:45:51.069Z,101464.75
2023-04-16T12:48:17.530Z,101459.56
2023-04-16T12:50:44.664Z,101465.88
2023-04-16T12:53:11.934Z,101472.00
2023-04-16T12:55:38.491Z,101469.41
2023-04-16T12:58:04.924Z,101465.56
2023-04-16T13:00:31.332Z,101468.28
2023-04-16T13:02:57.883Z,101460.41
2023-04-16T13:05:24.425Z,101463.59
2023-04-16T13:07:50.888Z,101452.69
2023-04-16T13:10:17.410Z,101463.09
2023-04-16T13:12:43.847Z,101464.56
2023-04-16T13:15:10.668Z,101453.94
2023-04-16T13:17:37.102Z,101461.56
2023-04-16T13:20:03.881Z,101463.41
2023-04-16T13:22:30.521Z,101465.09
2023-04-16T13:24:57.039Z,101465.72
2023-04-16T13:27:23.518Z,101459.25
2023-04-16T13:29:49.948Z,101484.03
2023-04-16T13:32:17.260Z,101476.53
2023-04-16T13:34:43.781Z,101479.41
2023-04-16T13:37:10.285Z,101476.38
2023-04-16T13:39:36.678Z,101484.56
2023-04-16T13:42:03.247Z,101477.53
2023-04-16T13:44:29.682Z,101483.66
2023-04-16T13:46:56.480Z,101492.09
2023-04-16T13:49:23.458Z,101482.81
2023-04-16T13:51:50.012Z,101493.72
2023-04-16T13:54:16.457Z,101482.59
2023-04-16T13:56:43.170Z,101486.72
2023-04-16T13:59:09.882Z,101498.69
2023-04-16T14:01:36.557Z,101487.63
2023-04-16T14:04:06.409Z,101502.28
2023-04-16T14:06:34.327Z,101493.69
2023-04-16T14:09:01.248Z,101494.94
2023-04-16T14:11:27.883Z,101497.00
2023-04-16T14:13:54.727Z,101508.72
2023-04-16T14:16:21.484Z,101499.00
2023-04-16T14:18:48.087Z,101509.47
2023-04-16T14:21:14.504Z,101496.22
2023-04-16T14:23:41.132Z,101499.78
2023-04-16T14:26:07.614Z,101486.00
2023-04-16T14:28:35.443Z,101490.50
2023-04-16T14:31:01.873Z,101486.63
2023-04-16T14:33:28.331Z,101486.22
2023-04-16T14:35:54.843Z,101496.38
2023-04-16T14:38:21.334Z,101496.09
2023-04-16T14:40:48.658Z,101508.19
2023-04-16T14:43:15.267Z,101495.78
2023-04-16T14:45:41.811Z,101504.19
2023-04-16T14:48:08.448Z,101505.31
2023-04-16T14:50:38.862Z,101508.06
2023-04-16T14:53:05.859Z,101516.69
2023-04-16T14:55:32.794Z,101504.63
2023-04-16T14:57:59.779Z,101508.47
2023-04-16T15:00:27.546Z,101510.38
2023-04-16T15:02:57.790Z,101504.88
2023-04-16T15:05:24.556Z,101518.34
2023-04-16T15:07:51.167Z,101517.53
2023-04-16T15:10:17.612Z,101524.94
2023-04-16T15:12:44.039Z,101517.94
2023-04-16T15:15:10.879Z,101518.16
2023-04-16T15:17:37.486Z,101518.88
2023-04-16T15:20:08.197Z,101518.69
2023-04-16T15:22:34.887Z,101525.81
2023-04-16T15:25:01.379Z,101523.59
2023-04-16T15:27:27.919Z,101521.38
2023-04-16T15:29:54.390Z,101525.53
2023-04-16T15:32:20.958Z,101528.03
2023-04-16T15:34:47.469Z,101530.56
2023-04-16T15:37:14.122Z,101538.25
2023-04-16T15:39:40.764Z,101544.69
2023-04-16T15:42:08.022Z,101545.47
2023-04-16T15:44:34.732Z,101544.56
2023-04-16T15:47:01.362Z,101541.69
2023-04-16T15:49:27.970Z,101548.69
2023-04-16T15:51:54.518Z,101545.50
2023-04-16T15:54:21.459Z,101546.22
2023-04-16T15:56:48.066Z,101551.13
2023-04-16T15:59:14.500Z,101550.44
2023-04-16T16:01:41.015Z,101555.31
2023-04-16T16:04:08.163Z,101548.06
2023-04-16T16:06:35.632Z,101546.91
2023-04-16T16:09:02.179Z,101550.94
2023-04-16T16:11:28.660Z,101555.59
2023-04-16T16:13:55.419Z,101561.50
2023-04-16T16:16:22.025Z,101565.91
2023-04-16T16:18:48.712Z,101558.59
2023-04-16T16:21:15.223Z,101567.44
2023-04-16T16:23:41.981Z,101577.66
2023-04-16T16:26:09.128Z,101582.22
2023-04-16T16:28:37.733Z,101566.91
2023-04-16T16:31:05.839Z,101594.03
2023-04-16T16:33:32.849Z,101584.88
2023-04-16T16:35:59.231Z,101587.84
2023-04-16T16:38:25.884Z,101581.06
2023-04-16T16:40:52.377Z,101583.38
2023-04-16T16:43:18.822Z,101589.53
2023-04-16T16:45:46.431Z,101574.38
2023-04-16T16:48:12.928Z,101583.91
2023-04-16T16:50:39.462Z,101578.22
2023-04-16T16:53:06.281Z,101589.59
2023-04-16T16:55:32.766Z,101590.66
2023-04-16T16:57:59.346Z,101590.13
2023-04-16T17:00:25.994Z,101591.25
2023-04-16T17:02:52.840Z,101601.47
2023-04-16T17:05:19.762Z,101601.09
2023-04-16T17:07:46.318Z,101596.88
2023-04-16T17:10:22.367Z,101611.88
2023-04-16T17:12:50.461Z,101598.81
2023-04-16T17:15:20.564Z,101605.84
2023-04-16T17:17:48.501Z,101596.78
2023-04-16T17:20:15.685Z,101620.13
2023-04-16T17:22:42.658Z,101606.25
2023-04-16T17:25:09.447Z,101620.72
2023-04-16T17:27:36.233Z,101613.19
2023-04-16T17:30:05.265Z,101607.72
2023-04-16T17:32:32.577Z,101621.84
2023-04-16T17:35:00.897Z,101614.50
2023-04-16T17:37:27.848Z,101618.94
2023-04-16T17:39:54.700Z,101618.22
2023-04-16T17:42:21.719Z,101636.50
2023-04-16T17:44:48.307Z,101620.63
2023-04-16T17:47:14.802Z,101637.94
2023-04-16T17:49:41.536Z,101635.50
2023-04-16T17:52:08.046Z,101625.91
2023-04-16T17:54:34.546Z,101639.50
2023-04-16T17:57:01.872Z,101630.22
2023-04-16T17:59:28.553Z,101637.69
2023-04-16T18:01:56.174Z,101651.22
2023-04-16T18:04:23.408Z,101647.03
2023-04-16T18:06:50.415Z,101647.59
2023-04-16T18:09:16.889Z,101648.31
2023-04-16T18:11:43.799Z,101647.38
2023-04-16T18:14:13.358Z,101657.78
2023-04-16T18:16:40.282Z,101661.41
2023-04-16T18:19:06.987Z,101669.44
2023-04-16T18:21:35.311Z,101669.59
2023-04-16T18:24:03.400Z,101682.44
2023-04-16T18:26:30.107Z,101679.44
2023-04-16T18:28:56.852Z,101683.91
2023-04-16T18:31:23.601Z,101688.63
2023-04-16T18:33:57.365Z,101692.66
2023-04-16T18:36:24.588Z,101701.16
2023-04-16T18:39:00.912Z,101699.38
2023-04-16T18:41:28.951Z,101700.38
2023-04-16T18:43:55.468Z,101707.59
2023-04-16T18:46:21.957Z,101714.38
2023-04-16T18:48:48.536Z,101723.06
2023-04-16T18:51:16.307Z,101713.72
2023-04-16T18:53:44.450Z,101714.53
2023-04-16T18:56:11.636Z,101721.00
2023-04-16T18:58:38.228Z,101720.47
2023-04-16T19:01:07.701Z,101720.31
2023-04-16T19:03:34.439Z,101717.56
2023-04-16T19:06:01.114Z,101712.59
2023-04-16T19:08:27.590Z,101719.72
2023-04-16T19:10:54.160Z,101722.09
2023-04-16T19:13:20.652Z,101726.59
2023-04-16T19:15:47.468Z,101723.59
2023-04-16T19:18:14.135Z,101731.00
2023-04-16T19:20:40.720Z,101724.84
2023-04-16T19:23:08.917Z,101727.88
2023-04-16T19:25:36.466Z,101723.09
2023-04-16T19:28:03.744Z,101731.28
2023-04-16T19:30:30.910Z,101735.47
2023-04-16T19:32:57.956Z,101725.81
2023-04-16T19:35:24.521Z,101736.13
2023-04-16T19:37:51.406Z,101734.53
2023-04-16T19:40:19.444Z,101734.50
2023-04-16T19:42:45.879Z,101739.00
2023-04-16T19:45:12.552Z,101734.47
2023-04-16T19:47:39.313Z,101733.69
2023-04-16T19:50:06.447Z,101734.78
2023-04-16T19:52:38.616Z,101745.63
2023-04-16T19:55:06.476Z,101732.31
2023-04-16T19:57:33.153Z,101745.97
2023-04-16T20:00:00.447Z,101740.78
2023-04-16T20:02:27.152Z,101734.19
2023-04-16T20:04:53.778Z,101739.06
2023-04-16T20:07:20.560Z,101741.59
2023-04-16T20:09:47.234Z,101742.75
2023-04-16T20:12:14.406Z,101745.47
2023-04-16T20:14:41.784Z,101747.88
2023-04-16T20:17:09.888Z,101734.69
2023-04-16T20:19:40.585Z,101738.69
2023-04-16T20:22:07.027Z,101746.28
2023-04-16T20:24:34.657Z,101740.78
2023-04-16T20:27:01.733Z,101735.03
2023-04-16T20:29:28.375Z,101727.28
2023-04-16T20:31:54.873Z,101734.25
2023-04-16T20:34:21.347Z,101721.84
2023-04-16T20:36:48.069Z,101727.31
2023-04-16T20:39:20.282Z,101734.19
2023-04-16T20:41:56.438Z,101738.25
2023-04-16T20:44:26.353Z,101734.94
2023-04-16T20:46:56.226Z,101738.09
2023-04-16T20:49:24.789Z,101731.97
2023-04-16T20:51:51.463Z,101735.84
2023-04-16T20:54:17.992Z,101730.56
2023-04-16T20:56:44.891Z,101735.56
2023-04-16T20:59:13.308Z,101734.16
2023-04-16T21:01:40.132Z,101729.69
2023-04-16T21:04:07.134Z,101733.34
2023-04-16T21:06:38.234Z,101731.38
2023-04-16T21:09:06.051Z,101729.03
2023-04-16T21:11:34.637Z,101734.91
2023-04-16T21:14:05.097Z,101738.16
2023-04-16T21:16:32.363Z,101728.41
2023-04-16T21:18:59.111Z,101732.41
2023-04-16T21:21:27.508Z,101730.63
2023-04-16T21:23:54.146Z,101737.44
2023-04-16T21:26:20.910Z,101725.72
2023-04-16T21:28:47.384Z,101739.25
2023-04-16T21:31:14.037Z,101730.94
2023-04-16T21:33:40.623Z,101723.84
2023-04-16T21:36:07.532Z,101732.22
2023-04-16T21:38:34.187Z,101728.75
2023-04-16T21:41:01.621Z,101744.91
2023-04-16T21:43:32.258Z,101735.47
2023-04-16T21:45:59.455Z,101729.25
2023-04-16T21:48:27.010Z,101737.97
2023-04-16T21:50:58.316Z,101732.88
2023-04-16T21:53:26.867Z,101733.53
2023-04-16T21:55:53.678Z,101738.41
2023-04-16T21:58:20.302Z,101736.75
2023-04-16T22:00:47.153Z,101731.88
2023-04-16T22:03:14.173Z,101737.53
2023-04-16T22:05:41.063Z,101736.22
2023-04-16T22:08:23.480Z,101737.41
2023-04-16T22:10:51.353Z,101733.59
2023-04-16T22:13:18.105Z,101737.78
2023-04-16T22:15:44.613Z,101737.41
2023-04-16T22:18:11.450Z,101738.03
2023-04-16T22:20:38.912Z,101746.47
2023-04-16T22:23:06.617Z,101739.22
2023-04-16T22:25:33.591Z,101734.81
2023-04-16T22:28:01.420Z,101736.38
2023-04-16T22:30:27.913Z,101735.16
2023-04-16T22:32:54.475Z,101728.72
2023-04-16T22:35:20.985Z,101741.84
2023-04-16T22:37:47.486Z,101726.53
2023-04-16T22:40:14.730Z,101731.28
2023-04-16T22:42:41.162Z,101732.75
2023-04-16T22:45:08.389Z,101741.13
2023-04-16T22:47:34.851Z,101731.06
2023-04-16T22:50:01.290Z,101740.16
2023-04-16T22:52:27.680Z,101744.38
2023-04-16T22:54:54.373Z,101739.41
2023-04-16T22:57:26.802Z,101733.56
2023-04-16T22:59:53.375Z,101731.16
2023-04-16T23:02:21.202Z,101740.94
2023-04-16T23:04:48.117Z,101740.75
2023-04-16T23:07:15.495Z,101739.09
2023-04-16T23:09:42.460Z,101735.47
2023-04-16T23:12:08.880Z,101737.00
2023-04-16T23:14:36.721Z,101734.78
2023-04-16T23:17:03.202Z,101734.31
2023-04-16T23:19:30.990Z,101742.31
2023-04-16T23:21:57.550Z,101739.72
2023-04-16T23:24:24.040Z,101741.06
2023-04-16T23:26:52.308Z,101745.50
2023-04-16T23:29:19.008Z,101746.41
2023-04-16T23:31:45.568Z,101749.03
2023-04-16T23:34:12.047Z,101742.81
2023-04-16T23:36:39.172Z,101741.59
2023-04-16T23:39:05.650Z,101747.25
2023-04-16T23:41:32.097Z,101748.81
2023-04-16T23:43:58.682Z,101744.19
2023-04-16T23:46:25.186Z,101742.31
2023-04-16T23:48:52.589Z,101741.84
2023-04-16T23:51:19.057Z,101742.06
2023-04-16T23:53:45.526Z,101744.50
2023-04-16T23:56:12.045Z,101734.19
2023-04-16T23:58:38.469Z,101739.34
